Time;durP1;ratioP1;P1;durP2;ratioP2;P2;SDS_P1;SDS_P2;PMS_P1;PMS_P2;Temp;Humidity;BMP_temperature;BMP_pressure;BME280_temperature;BME280_humidity;BME280_pressure;Samples;Min_cycle;Max_cycle;Signal;HPM_P1;HPM_P2
2023/02/23 00:00:20;;;;;;;17.67;7.55;;;;;;;;;;5010963;28;20037;-73
2023/02/23 00:02:48;;;;;;;16.02;7.28;;;;;;;;;;5014234;28;20042;-73
2023/02/23 00:05:15;;;;;;;20.75;8.07;;;;;;;;;;5015915;28;20026;-73
2023/02/23 00:07:44;;;;;;;26.85;7.55;;;;;;;;;;5000790;28;20044;-73
2023/02/23 00:10:12;;;;;;;12.27;6.93;;;;;;;;;;5017434;28;20033;-75
2023/02/23 00:12:38;;;;;;;17.88;8.68;;;;;;;;;;5013168;28;20117;-75
2023/02/23 00:15:03;;;;;;;15.55;8.05;;;;;;;;;;5003433;28;20488;-72
2023/02/23 00:17:30;;;;;;;24.58;8.80;;;;;;;;;;5014338;28;20045;-74
2023/02/23 00:19:57;;;;;;;19.10;8.00;;;;;;;;;;5015055;28;20470;-72
2023/02/23 00:22:25;;;;;;;20.75;7.95;;;;;;;;;;5014312;28;20046;-73
2023/02/23 00:24:51;;;;;;;23.75;7.63;;;;;;;;;;5018036;28;20087;-73
2023/02/23 00:27:17;;;;;;;21.17;7.65;;;;;;;;;;5019201;28;20030;-73
2023/02/23 00:29:42;;;;;;;16.38;7.28;;;;;;;;;;5017264;28;20147;-73
2023/02/23 00:32:08;;;;;;;11.73;5.68;;;;;;;;;;5013666;28;20037;-73
2023/02/23 00:34:34;;;;;;;12.18;4.88;;;;;;;;;;5015063;28;20065;-72
2023/02/23 00:37:00;;;;;;;10.35;5.85;;;;;;;;;;5001264;28;20037;-72
2023/02/23 00:39:27;;;;;;;11.27;5.15;;;;;;;;;;5007844;28;20041;-73
2023/02/23 00:41:54;;;;;;;11.35;4.70;;;;;;;;;;5006812;28;20026;-74
2023/02/23 00:44:23;;;;;;;16.45;4.70;;;;;;;;;;5011658;28;20485;-73
2023/02/23 00:46:50;;;;;;;9.50;4.20;;;;;;;;;;5007160;28;20038;-72
2023/02/23 00:49:17;;;;;;;8.82;3.83;;;;;;;;;;5014100;28;20033;-73
2023/02/23 00:51:42;;;;;;;11.13;4.05;;;;;;;;;;5014627;28;20046;-73
2023/02/23 00:54:11;;;;;;;14.75;3.42;;;;;;;;;;5013737;28;20371;-74
2023/02/23 00:56:37;;;;;;;7.20;3.00;;;;;;;;;;5011759;28;20034;-73
2023/02/23 00:59:03;;;;;;;9.02;2.60;;;;;;;;;;5004237;28;20113;-75
2023/02/23 01:01:28;;;;;;;7.63;2.78;;;;;;;;;;5015272;28;20133;-73
2023/02/23 01:03:54;;;;;;;5.28;2.90;;;;;;;;;;5007876;28;20389;-73
2023/02/23 01:06:20;;;;;;;6.55;2.75;;;;;;;;;;5012370;28;20084;-72
2023/02/23 01:08:50;;;;;;;10.25;3.17;;;;;;;;;;5013457;28;20061;-73
2023/02/23 01:11:21;;;;;;;9.77;2.90;;;;;;;;;;5013956;28;20025;-73
2023/02/23 01:13:47;;;;;;;5.68;2.35;;;;;;;;;;5011887;28;20042;-73
2023/02/23 01:16:15;;;;;;;10.50;2.80;;;;;;;;;;5014471;28;20128;-72
2023/02/23 01:18:43;;;;;;;8.45;2.88;;;;;;;;;;5028119;28;20045;-73
2023/02/23 01:21:17;;;;;;;10.75;2.88;;;;;;;;;;5006637;28;20049;-74
2023/02/23 01:23:42;;;;;;;9.75;3.05;;;;;;;;;;5008814;28;20382;-72
2023/02/23 01:26:19;;;;;;;8.05;2.72;;;;;;;;;;5013725;28;20038;-72
2023/02/23 01:28:54;;;;;;;10.75;3.15;;;;;;;;;;5006363;28;20117;-73
2023/02/23 01:31:21;;;;;;;5.30;2.75;;;;;;;;;;5012512;28;20034;-73
2023/02/23 01:33:47;;;;;;;8.40;2.67;;;;;;;;;;5030159;28;20099;-72
2023/02/23 01:36:13;;;;;;;9.30;2.83;;;;;;;;;;5022376;28;20136;-73
2023/02/23 01:38:39;;;;;;;6.72;3.20;;;;;;;;;;5013014;28;20466;-73
2023/02/23 01:41:06;;;;;;;6.00;2.63;;;;;;;;;;5020345;28;20704;-73
2023/02/23 01:43:31;;;;;;;5.07;2.50;;;;;;;;;;5012862;28;20072;-72
2023/02/23 01:45:57;;;;;;;7.22;2.92;;;;;;;;;;5016595;28;20081;-73
2023/02/23 01:48:33;;;;;;;12.55;2.97;;;;;;;;;;5012904;28;20037;-72
2023/02/23 01:50:58;;;;;;;7.10;2.80;;;;;;;;;;5021564;28;20049;-74
2023/02/23 01:53:26;;;;;;;11.90;2.83;;;;;;;;;;5012871;28;20037;-73
2023/02/23 01:56:04;;;;;;;6.55;2.17;;;;;;;;;;5017272;28;20038;-72
2023/02/23 01:58:31;;;;;;;6.10;2.72;;;;;;;;;;5027959;28;20046;-73
2023/02/23 02:01:01;;;;;;;4.18;1.55;;;;;;;;;;5012532;28;20092;-74
2023/02/23 02:03:40;;;;;;;11.48;2.50;;;;;;;;;;5013614;28;20033;-74
2023/02/23 02:06:09;;;;;;;10.65;2.65;;;;;;;;;;5007344;28;20097;-72
2023/02/23 02:08:43;;;;;;;3.50;2.17;;;;;;;;;;4993999;28;20459;-73
2023/02/23 02:11:24;;;;;;;8.63;2.22;;;;;;;;;;5014562;28;20026;-73
2023/02/23 02:13:55;;;;;;;8.13;2.47;;;;;;;;;;4995797;28;20042;-72
2023/02/23 02:16:41;;;;;;;4.85;2.55;;;;;;;;;;5012323;28;20033;-73
2023/02/23 02:19:22;;;;;;;10.15;2.00;;;;;;;;;;5026620;28;20042;-73
2023/02/23 02:22:15;;;;;;;6.22;2.35;;;;;;;;;;5012862;28;20469;-73
2023/02/23 02:25:02;;;;;;;4.05;1.85;;;;;;;;;;5012821;28;20068;-72
2023/02/23 02:27:43;;;;;;;3.10;1.60;;;;;;;;;;5007541;28;20045;-74
2023/02/23 02:30:17;;;;;;;5.18;1.60;;;;;;;;;;5037179;28;20037;-73
2023/02/23 02:32:49;;;;;;;5.05;1.45;;;;;;;;;;5017009;28;20547;-73
2023/02/23 02:36:01;;;;;;;5.38;1.15;;;;;;;;;;5019362;28;20052;-73
2023/02/23 02:38:29;;;;;;;2.53;1.05;;;;;;;;;;5012897;28;20040;-73
2023/02/23 02:41:05;;;;;;;3.72;1.13;;;;;;;;;;5016513;28;20049;-73
2023/02/23 02:43:37;;;;;;;8.13;1.30;;;;;;;;;;5013853;28;20029;-73
2023/02/23 02:46:23;;;;;;;3.33;1.10;;;;;;;;;;5031952;28;20561;-72
2023/02/23 02:49:00;;;;;;;4.03;1.10;;;;;;;;;;5016432;28;20496;-73
2023/02/23 02:51:34;;;;;;;3.35;1.00;;;;;;;;;;5017758;28;20046;-73
2023/02/23 02:54:14;;;;;;;6.33;1.20;;;;;;;;;;5030807;28;20033;-74
2023/02/23 02:56:42;;;;;;;3.50;1.63;;;;;;;;;;5014887;28;20077;-74
2023/02/23 04:18:37;;;;;;;2.55;1.70;;;;;;;;;;5011028;28;20042;-74
2023/02/23 04:21:04;;;;;;;5.82;2.13;;;;;;;;;;5030055;28;20034;-72
2023/02/23 04:23:30;;;;;;;6.25;2.45;;;;;;;;;;5014169;28;20116;-73
2023/02/23 04:25:56;;;;;;;5.47;2.60;;;;;;;;;;5014843;28;20156;-73
2023/02/23 04:28:23;;;;;;;4.13;2.03;;;;;;;;;;5029446;28;20499;-73
2023/02/23 04:30:48;;;;;;;10.75;2.60;;;;;;;;;;5015443;28;20062;-73
2023/02/23 04:33:14;;;;;;;7.00;2.47;;;;;;;;;;5012587;28;20066;-73
2023/02/23 04:35:40;;;;;;;6.18;2.42;;;;;;;;;;5014414;28;20049;-73
2023/02/23 04:38:05;;;;;;;7.05;2.50;;;;;;;;;;5012853;28;20466;-74
2023/02/23 04:40:31;;;;;;;5.07;2.42;;;;;;;;;;5018086;28;20547;-72
2023/02/23 04:42:57;;;;;;;5.80;2.88;;;;;;;;;;5027226;28;20091;-75
2023/02/23 04:45:23;;;;;;;5.00;2.60;;;;;;;;;;5006571;28;20034;-72
2023/02/23 04:47:49;;;;;;;7.60;2.80;;;;;;;;;;4992822;28;20367;-74
2023/02/23 04:50:15;;;;;;;4.13;2.42;;;;;;;;;;5011838;28;20049;-73
2023/02/23 04:52:41;;;;;;;6.10;2.50;;;;;;;;;;5002258;28;20450;-72
2023/02/23 04:55:08;;;;;;;6.03;2.40;;;;;;;;;;5017113;28;20077;-72
2023/02/23 04:57:34;;;;;;;4.18;2.05;;;;;;;;;;5012620;28;20034;-73
2023/02/23 05:00:00;;;;;;;8.55;2.35;;;;;;;;;;5010456;28;20363;-73
2023/02/23 05:02:26;;;;;;;6.38;2.65;;;;;;;;;;5006620;28;20385;-72
2023/02/23 05:04:51;;;;;;;5.13;2.58;;;;;;;;;;5015381;28;20041;-73
2023/02/23 05:07:17;;;;;;;5.70;2.70;;;;;;;;;;5011957;28;20034;-72
2023/02/23 05:09:42;;;;;;;3.15;2.22;;;;;;;;;;5011144;28;20087;-72
2023/02/23 05:12:08;;;;;;;6.72;2.30;;;;;;;;;;5013379;28;20049;-72
2023/02/23 05:14:33;;;;;;;3.45;2.20;;;;;;;;;;5008476;28;20108;-73
2023/02/23 05:16:59;;;;;;;5.40;1.80;;;;;;;;;;5006735;28;20434;-75
2023/02/23 05:19:24;;;;;;;4.18;1.63;;;;;;;;;;5013961;28;20116;-73
2023/02/23 05:21:50;;;;;;;8.15;2.17;;;;;;;;;;5008787;28;20425;-73
2023/02/23 05:24:16;;;;;;;7.45;2.35;;;;;;;;;;5014536;28;20037;-74
2023/02/23 05:26:42;;;;;;;3.35;2.03;;;;;;;;;;4996091;28;20390;-73
2023/02/23 05:29:08;;;;;;;6.82;2.10;;;;;;;;;;5030810;28;20063;-72
2023/02/23 05:31:33;;;;;;;9.82;1.90;;;;;;;;;;5011847;28;20042;-74
2023/02/23 05:33:59;;;;;;;5.28;2.13;;;;;;;;;;5013939;28;20453;-73
2023/02/23 05:36:24;;;;;;;3.50;1.45;;;;;;;;;;5006433;28;20034;-73
2023/02/23 05:38:50;;;;;;;3.08;1.65;;;;;;;;;;5021483;28;20060;-72
2023/02/23 05:41:18;;;;;;;3.95;2.13;;;;;;;;;;5013891;28;20046;-73
2023/02/23 05:43:44;;;;;;;4.63;1.90;;;;;;;;;;5012889;28;20030;-73
2023/02/23 05:46:12;;;;;;;3.78;1.45;;;;;;;;;;5010131;28;20041;-73
2023/02/23 05:48:37;;;;;;;5.70;1.98;;;;;;;;;;5004862;28;20038;-73
2023/02/23 05:51:09;;;;;;;6.15;1.85;;;;;;;;;;5016794;28;20082;-72
2023/02/23 05:53:35;;;;;;;6.50;2.30;;;;;;;;;;5011056;28;20053;-73
2023/02/23 05:56:01;;;;;;;6.32;2.22;;;;;;;;;;5012702;28;20132;-73
2023/02/23 05:58:27;;;;;;;8.07;2.47;;;;;;;;;;4993402;28;20088;-73
2023/02/23 06:00:52;;;;;;;7.68;2.10;;;;;;;;;;5016538;28;20466;-73
2023/02/23 06:03:18;;;;;;;10.88;2.85;;;;;;;;;;5023619;28;20064;-73
2023/02/23 06:05:54;;;;;;;9.15;2.42;;;;;;;;;;5001719;28;20034;-73
2023/02/23 06:08:19;;;;;;;8.20;2.50;;;;;;;;;;5009703;28;20038;-73
2023/02/23 06:10:45;;;;;;;5.72;2.20;;;;;;;;;;5033608;28;20109;-73
2023/02/23 06:13:11;;;;;;;5.65;2.00;;;;;;;;;;5017882;28;20048;-72
2023/02/23 06:15:37;;;;;;;3.78;2.10;;;;;;;;;;5019344;28;20049;-73
2023/02/23 06:18:03;;;;;;;7.90;2.50;;;;;;;;;;5018009;28;20032;-72
2023/02/23 06:20:28;;;;;;;6.28;1.95;;;;;;;;;;5016550;28;20070;-72
2023/02/23 06:22:54;;;;;;;6.75;2.50;;;;;;;;;;5015542;28;20470;-73
2023/02/23 06:25:19;;;;;;;2.45;1.33;;;;;;;;;;5014441;28;20037;-72
2023/02/23 06:27:45;;;;;;;6.80;2.33;;;;;;;;;;5014384;28;20363;-73
2023/02/23 06:30:11;;;;;;;6.05;2.60;;;;;;;;;;5022120;28;20048;-72
2023/02/23 06:32:37;;;;;;;8.15;2.17;;;;;;;;;;5011400;28;20030;-74
2023/02/23 06:35:04;;;;;;;8.00;2.33;;;;;;;;;;5016077;28;20029;-72
2023/02/23 06:37:30;;;;;;;6.15;2.05;;;;;;;;;;5019015;28;20045;-73
2023/02/23 06:39:56;;;;;;;8.60;2.28;;;;;;;;;;5008132;28;20113;-73
2023/02/23 06:42:22;;;;;;;6.70;2.50;;;;;;;;;;5015529;28;20038;-72
2023/02/23 06:44:47;;;;;;;9.20;2.70;;;;;;;;;;5015829;28;20180;-73
2023/02/23 06:47:13;;;;;;;5.47;2.00;;;;;;;;;;5010778;28;20034;-73
2023/02/23 06:49:39;;;;;;;6.45;2.40;;;;;;;;;;5002603;28;20052;-73
2023/02/23 06:52:08;;;;;;;3.85;2.10;;;;;;;;;;4975083;28;1221770;-74
2023/02/23 06:54:34;;;;;;;6.65;2.10;;;;;;;;;;5032221;28;20096;-73
2023/02/23 06:57:00;;;;;;;7.93;1.85;;;;;;;;;;5011885;28;20052;-73
2023/02/23 06:59:25;;;;;;;10.65;2.28;;;;;;;;;;5016693;28;20045;-74
2023/02/23 07:01:51;;;;;;;7.63;2.28;;;;;;;;;;5014516;28;20044;-73
2023/02/23 07:04:16;;;;;;;6.70;1.70;;;;;;;;;;5023571;28;20042;-74
2023/02/23 07:06:42;;;;;;;4.97;1.70;;;;;;;;;;5010285;28;20046;-73
2023/02/23 07:09:07;;;;;;;7.63;2.20;;;;;;;;;;5014055;28;20099;-73
2023/02/23 07:11:33;;;;;;;7.43;1.80;;;;;;;;;;5029644;28;20091;-72
2023/02/23 07:14:00;;;;;;;5.35;2.03;;;;;;;;;;5022569;28;20049;-73
2023/02/23 07:16:26;;;;;;;7.72;1.90;;;;;;;;;;5014600;28;20479;-73
2023/02/23 07:18:53;;;;;;;5.07;1.63;;;;;;;;;;5020524;28;20026;-72
2023/02/23 07:21:19;;;;;;;4.70;1.75;;;;;;;;;;5038901;28;20054;-73
2023/02/23 07:23:44;;;;;;;6.43;1.65;;;;;;;;;;5015481;28;20089;-73
2023/02/23 07:26:11;;;;;;;9.98;1.83;;;;;;;;;;5021914;28;20034;-73
2023/02/23 07:28:37;;;;;;;10.70;1.55;;;;;;;;;;5015327;28;20112;-76
2023/02/23 07:31:02;;;;;;;7.88;1.55;;;;;;;;;;5027498;28;20125;-73
2023/02/23 07:33:28;;;;;;;5.65;1.40;;;;;;;;;;5004960;28;20034;-74
2023/02/23 07:35:53;;;;;;;8.50;1.58;;;;;;;;;;5019424;28;20048;-73
2023/02/23 07:38:19;;;;;;;12.07;1.60;;;;;;;;;;5016199;28;20092;-73
2023/02/23 07:40:44;;;;;;;10.80;1.55;;;;;;;;;;5011573;28;20018;-73
2023/02/23 07:43:09;;;;;;;12.38;1.98;;;;;;;;;;5014345;28;20053;-73
2023/02/23 07:45:35;;;;;;;12.05;1.88;;;;;;;;;;5014681;28;20044;-73
2023/02/23 07:48:01;;;;;;;7.30;1.70;;;;;;;;;;5004424;28;20532;-73
2023/02/23 07:50:26;;;;;;;10.13;2.20;;;;;;;;;;5000159;28;20160;-73
2023/02/23 07:52:52;;;;;;;8.68;1.77;;;;;;;;;;5000448;28;20558;-73
2023/02/23 07:55:18;;;;;;;19.48;1.67;;;;;;;;;;4995901;28;20041;-73
2023/02/23 07:57:43;;;;;;;6.60;1.50;;;;;;;;;;5003672;28;20049;-73
2023/02/23 08:00:10;;;;;;;9.73;1.85;;;;;;;;;;5003928;28;20080;-75
2023/02/23 08:02:36;;;;;;;6.50;1.30;;;;;;;;;;5020531;28;20540;-74
2023/02/23 08:05:02;;;;;;;9.52;1.52;;;;;;;;;;5010640;28;20041;-73
2023/02/23 08:07:27;;;;;;;6.55;1.95;;;;;;;;;;5008966;28;20042;-73
2023/02/23 08:09:52;;;;;;;9.38;1.77;;;;;;;;;;5006249;28;20045;-72
2023/02/23 08:12:18;;;;;;;12.65;1.55;;;;;;;;;;5014250;28;20042;-73
2023/02/23 08:14:44;;;;;;;6.25;0.90;;;;;;;;;;5015251;28;20126;-73
2023/02/23 08:17:10;;;;;;;5.78;1.55;;;;;;;;;;5019977;28;20033;-74
2023/02/23 08:19:36;;;;;;;18.23;3.42;;;;;;;;;;5011919;28;20038;-72
2023/02/23 08:22:02;;;;;;;9.98;1.58;;;;;;;;;;5003870;28;20552;-73
2023/02/23 08:24:29;;;;;;;4.22;1.20;;;;;;;;;;5010674;28;20029;-74
2023/02/23 08:26:55;;;;;;;17.58;1.80;;;;;;;;;;5011423;28;20450;-73
2023/02/23 08:29:21;;;;;;;12.63;1.75;;;;;;;;;;5030022;28;20042;-74
2023/02/23 08:31:46;;;;;;;8.20;1.83;;;;;;;;;;5023326;28;20018;-72
2023/02/23 08:34:13;;;;;;;12.38;2.03;;;;;;;;;;5000923;28;20053;-73
2023/02/23 08:36:39;;;;;;;9.88;2.30;;;;;;;;;;5007743;28;20030;-72
2023/02/23 08:39:06;;;;;;;7.82;1.65;;;;;;;;;;5013987;28;20041;-73
2023/02/23 08:41:33;;;;;;;13.73;2.17;;;;;;;;;;5013671;28;20096;-76
2023/02/23 08:43:58;;;;;;;10.05;2.13;;;;;;;;;;5010293;28;20056;-73
2023/02/23 08:46:23;;;;;;;8.90;2.08;;;;;;;;;;5014588;28;20034;-73
2023/02/23 08:48:49;;;;;;;11.70;1.98;;;;;;;;;;5010358;28;20037;-72
2023/02/23 08:51:15;;;;;;;7.65;1.45;;;;;;;;;;5012280;28;20049;-73
2023/02/23 08:53:40;;;;;;;8.70;1.83;;;;;;;;;;5003516;28;20038;-74
2023/02/23 08:56:07;;;;;;;9.77;2.10;;;;;;;;;;5013055;28;20084;-72
2023/02/23 08:58:34;;;;;;;8.02;1.63;;;;;;;;;;5012227;28;20038;-72
2023/02/23 09:00:59;;;;;;;6.35;1.48;;;;;;;;;;5028551;28;20108;-73
2023/02/23 09:03:27;;;;;;;7.95;2.72;;;;;;;;;;5014557;28;20124;-73
2023/02/23 09:05:53;;;;;;;9.30;1.60;;;;;;;;;;4990931;28;20077;-80
2023/02/23 09:08:20;;;;;;;9.35;1.83;;;;;;;;;;5002655;28;20021;-74
2023/02/23 09:10:45;;;;;;;9.10;1.38;;;;;;;;;;5007717;28;20037;-73
2023/02/23 09:13:11;;;;;;;15.60;2.05;;;;;;;;;;5015890;28;20086;-78
2023/02/23 09:15:40;;;;;;;9.13;1.77;;;;;;;;;;5016196;28;20046;-74
2023/02/23 09:18:07;;;;;;;13.43;1.60;;;;;;;;;;4996497;28;20037;-73
2023/02/23 09:20:33;;;;;;;10.52;1.80;;;;;;;;;;5028497;28;20513;-74
2023/02/23 09:22:59;;;;;;;10.85;2.17;;;;;;;;;;5013409;28;20172;-79
2023/02/23 09:25:24;;;;;;;13.80;1.83;;;;;;;;;;5013225;28;20397;-74
2023/02/23 09:27:52;;;;;;;11.30;1.85;;;;;;;;;;5017011;28;20041;-75
2023/02/23 09:30:19;;;;;;;11.13;2.08;;;;;;;;;;5012074;28;20022;-75
2023/02/23 09:32:48;;;;;;;13.40;1.73;;;;;;;;;;5028635;28;20569;-72
2023/02/23 09:35:18;;;;;;;12.13;1.95;;;;;;;;;;5016900;28;20105;-74
2023/02/23 09:37:48;;;;;;;7.97;1.75;;;;;;;;;;5007986;28;20394;-73
2023/02/23 09:40:24;;;;;;;12.35;2.55;;;;;;;;;;5013417;28;20045;-73
2023/02/23 09:43:03;;;;;;;9.13;1.75;;;;;;;;;;4992459;28;20046;-72
2023/02/23 09:45:35;;;;;;;10.18;1.65;;;;;;;;;;5007031;28;20034;-73
2023/02/23 09:48:07;;;;;;;11.95;1.92;;;;;;;;;;5007158;28;20438;-73
2023/02/23 09:50:33;;;;;;;7.93;2.10;;;;;;;;;;5013547;28;20508;-75
2023/02/23 09:53:06;;;;;;;13.30;1.88;;;;;;;;;;5023841;28;20033;-73
2023/02/23 09:55:32;;;;;;;13.20;2.20;;;;;;;;;;5024767;28;20046;-72
2023/02/23 09:58:06;;;;;;;9.63;1.95;;;;;;;;;;5018319;28;20056;-74
2023/02/23 10:00:37;;;;;;;7.60;1.60;;;;;;;;;;5016963;28;20041;-73
2023/02/23 10:03:10;;;;;;;11.07;2.10;;;;;;;;;;4985609;28;20524;-73
2023/02/23 10:05:42;;;;;;;14.45;1.58;;;;;;;;;;5007130;28;20061;-72
2023/02/23 10:08:18;;;;;;;10.75;2.17;;;;;;;;;;5011783;28;20042;-73
2023/02/23 10:10:48;;;;;;;9.82;2.03;;;;;;;;;;5002621;28;20044;-74
2023/02/23 10:13:45;;;;;;;9.45;1.70;;;;;;;;;;4998815;28;20197;-72
2023/02/23 10:16:31;;;;;;;7.97;2.15;;;;;;;;;;5010552;28;20054;-72
2023/02/23 10:19:29;;;;;;;7.00;1.70;;;;;;;;;;4995186;28;20429;-73
2023/02/23 10:21:57;;;;;;;11.02;1.92;;;;;;;;;;4999572;28;20049;-73
2023/02/23 10:24:34;;;;;;;9.30;1.95;;;;;;;;;;4996497;28;20054;-74
2023/02/23 10:27:06;;;;;;;10.48;2.42;;;;;;;;;;5005775;28;21015;-73
2023/02/23 10:29:34;;;;;;;10.00;1.85;;;;;;;;;;4995083;28;20034;-74
2023/02/23 10:32:05;;;;;;;8.32;2.00;;;;;;;;;;5022662;28;20042;-75
2023/02/23 10:34:31;;;;;;;10.75;2.10;;;;;;;;;;4996584;28;20109;-74
2023/02/23 10:37:02;;;;;;;11.35;2.08;;;;;;;;;;4994077;28;20402;-74
2023/02/23 10:39:31;;;;;;;8.93;1.55;;;;;;;;;;5000764;28;20030;-73
2023/02/23 10:41:59;;;;;;;17.35;2.45;;;;;;;;;;5003625;28;20045;-73
2023/02/23 10:44:26;;;;;;;15.07;2.10;;;;;;;;;;5011032;28;20045;-73
2023/02/23 10:46:58;;;;;;;13.68;2.10;;;;;;;;;;5002441;28;20064;-78
2023/02/23 10:49:31;;;;;;;12.48;2.03;;;;;;;;;;5003117;28;20451;-74
2023/02/23 10:52:01;;;;;;;8.35;1.42;;;;;;;;;;5015615;28;20125;-74
2023/02/23 10:54:37;;;;;;;9.98;1.55;;;;;;;;;;5004208;28;20041;-75
2023/02/23 10:57:04;;;;;;;13.80;1.88;;;;;;;;;;5000440;28;20054;-74
2023/02/23 10:59:30;;;;;;;10.77;1.60;;;;;;;;;;5002898;28;20536;-74
2023/02/23 11:01:56;;;;;;;12.75;1.95;;;;;;;;;;5002744;28;20045;-74
2023/02/23 11:04:49;;;;;;;10.82;1.85;;;;;;;;;;5012091;28;20046;-75
2023/02/23 11:07:17;;;;;;;14.80;1.88;;;;;;;;;;5020240;28;20043;-74
2023/02/23 11:09:43;;;;;;;10.40;2.08;;;;;;;;;;5002699;28;20030;-74
2023/02/23 11:12:23;;;;;;;12.82;1.98;;;;;;;;;;5016598;28;20227;-73
2023/02/23 11:14:51;;;;;;;17.20;2.33;;;;;;;;;;5010895;28;20046;-73
2023/02/23 11:17:27;;;;;;;7.40;1.70;;;;;;;;;;4999313;28;20046;-74
2023/02/23 11:19:58;;;;;;;9.52;1.55;;;;;;;;;;5004153;28;20070;-75
2023/02/23 11:22:25;;;;;;;10.88;1.92;;;;;;;;;;5012027;28;20394;-74
2023/02/23 11:24:52;;;;;;;8.02;2.03;;;;;;;;;;4995034;28;20034;-73
2023/02/23 11:27:24;;;;;;;12.30;1.90;;;;;;;;;;4997446;28;20034;-73
2023/02/23 11:29:52;;;;;;;10.45;1.60;;;;;;;;;;5003418;28;20034;-73
2023/02/23 11:32:31;;;;;;;7.10;1.80;;;;;;;;;;5010118;28;20061;-74
2023/02/23 11:35:21;;;;;;;6.40;1.30;;;;;;;;;;5010739;28;20148;-74
2023/02/23 11:37:49;;;;;;;9.15;1.88;;;;;;;;;;5000600;28;20025;-73
2023/02/23 11:40:17;;;;;;;13.88;2.22;;;;;;;;;;5009930;28;20041;-74
2023/02/23 11:43:06;;;;;;;12.80;2.20;;;;;;;;;;5010001;28;20036;-74
2023/02/23 11:45:37;;;;;;;8.27;1.73;;;;;;;;;;5010403;28;20076;-74
2023/02/23 11:48:03;;;;;;;10.70;1.90;;;;;;;;;;5026291;28;20034;-75
2023/02/23 11:50:31;;;;;;;6.50;1.48;;;;;;;;;;5007981;28;20053;-73
2023/02/23 11:53:04;;;;;;;7.80;1.77;;;;;;;;;;5008701;28;20520;-79
2023/02/23 11:55:31;;;;;;;9.02;1.85;;;;;;;;;;5007865;28;20103;-73
2023/02/23 11:58:21;;;;;;;12.73;1.80;;;;;;;;;;4998751;28;20054;-75
2023/02/23 12:00:56;;;;;;;9.85;1.75;;;;;;;;;;5025142;28;20045;-74
2023/02/23 12:03:24;;;;;;;6.80;1.35;;;;;;;;;;5001424;28;20128;-74
2023/02/23 12:05:52;;;;;;;11.18;1.77;;;;;;;;;;5002862;28;20049;-73
2023/02/23 12:08:47;;;;;;;9.32;1.83;;;;;;;;;;5026081;28;20046;-76
2023/02/23 12:11:19;;;;;;;8.63;1.45;;;;;;;;;;4998408;28;20094;-75
2023/02/23 12:13:49;;;;;;;8.75;1.75;;;;;;;;;;5019340;28;20034;-73
2023/02/23 12:16:20;;;;;;;5.68;1.83;;;;;;;;;;5007676;28;20049;-78
2023/02/23 12:18:49;;;;;;;5.03;1.10;;;;;;;;;;5008071;28;20036;-75
2023/02/23 12:21:34;;;;;;;7.30;2.08;;;;;;;;;;5002576;28;20046;-75
2023/02/23 12:24:11;;;;;;;6.47;1.20;;;;;;;;;;5002662;28;20037;-74
2023/02/23 12:26:47;;;;;;;9.43;1.45;;;;;;;;;;5015446;28;20501;-74
2023/02/23 12:29:19;;;;;;;13.40;1.65;;;;;;;;;;5012023;28;20116;-74
2023/02/23 12:31:52;;;;;;;8.80;1.42;;;;;;;;;;5010627;28;20054;-73
2023/02/23 12:34:28;;;;;;;6.40;1.52;;;;;;;;;;5003197;28;20108;-73
2023/02/23 12:37:00;;;;;;;12.07;1.77;;;;;;;;;;4998056;28;20038;-80
2023/02/23 12:39:39;;;;;;;8.05;1.75;;;;;;;;;;4989582;28;20482;-74
2023/02/23 12:42:37;;;;;;;11.07;1.20;;;;;;;;;;5013195;28;20114;-74
2023/02/23 12:45:05;;;;;;;7.05;1.38;;;;;;;;;;4996700;28;20474;-74
2023/02/23 12:47:40;;;;;;;11.15;1.70;;;;;;;;;;4999299;28;20034;-78
2023/02/23 12:50:16;;;;;;;10.60;2.00;;;;;;;;;;5005949;28;20123;-74
2023/02/23 12:53:00;;;;;;;9.88;1.95;;;;;;;;;;5019034;28;20133;-74
2023/02/23 12:55:40;;;;;;;11.63;2.03;;;;;;;;;;5007013;28;20058;-75
2023/02/23 12:58:14;;;;;;;10.57;1.40;;;;;;;;;;5011983;28;20043;-75
2023/02/23 13:00:56;;;;;;;3.22;1.52;;;;;;;;;;5005888;28;20058;-79
2023/02/23 13:03:56;;;;;;;8.57;1.52;;;;;;;;;;5006476;28;20030;-74
2023/02/23 13:06:51;;;;;;;12.98;1.65;;;;;;;;;;4998706;28;20038;-73
2023/02/23 13:09:34;;;;;;;6.30;1.48;;;;;;;;;;4997116;28;20050;-73
2023/02/23 13:12:10;;;;;;;7.82;1.55;;;;;;;;;;4998506;28;20038;-74
2023/02/23 13:14:47;;;;;;;13.82;1.50;;;;;;;;;;5000832;28;20432;-73
2023/02/23 13:17:39;;;;;;;9.63;2.15;;;;;;;;;;4997064;28;20091;-73
2023/02/23 13:20:04;;;;;;;7.45;1.60;;;;;;;;;;5001761;28;20065;-74
2023/02/23 13:22:41;;;;;;;11.05;1.92;;;;;;;;;;4994883;28;20034;-78
2023/02/23 13:25:33;;;;;;;11.90;1.88;;;;;;;;;;4992613;28;20898;-73
2023/02/23 13:28:00;;;;;;;8.38;1.50;;;;;;;;;;4973182;28;20511;-74
2023/02/23 13:30:25;;;;;;;5.80;1.58;;;;;;;;;;5000191;28;20976;-74
2023/02/23 13:32:51;;;;;;;13.65;1.38;;;;;;;;;;5020217;28;20037;-76
2023/02/23 13:35:20;;;;;;;10.20;1.50;;;;;;;;;;4995220;28;20038;-75
2023/02/23 13:38:18;;;;;;;8.00;1.65;;;;;;;;;;5004823;28;20037;-75
2023/02/23 13:40:49;;;;;;;11.30;1.67;;;;;;;;;;4993341;28;20096;-80
2023/02/23 13:43:26;;;;;;;5.90;1.27;;;;;;;;;;5023601;28;20163;-79
2023/02/23 13:46:03;;;;;;;5.63;1.27;;;;;;;;;;5007479;28;20037;-75
2023/02/23 13:48:48;;;;;;;8.27;1.30;;;;;;;;;;5001288;28;20042;-74
2023/02/23 13:51:25;;;;;;;8.63;1.50;;;;;;;;;;5026552;28;20141;-75
2023/02/23 13:53:58;;;;;;;14.82;2.22;;;;;;;;;;5007188;28;20058;-80
2023/02/23 13:56:25;;;;;;;13.98;1.92;;;;;;;;;;5005516;28;20060;-76
2023/02/23 13:58:58;;;;;;;12.00;1.60;;;;;;;;;;5024000;28;20049;-75
2023/02/23 14:01:43;;;;;;;7.78;1.52;;;;;;;;;;5005548;28;20037;-75
2023/02/23 14:04:34;;;;;;;11.10;1.77;;;;;;;;;;5023831;28;20038;-75
2023/02/23 14:06:59;;;;;;;9.40;2.03;;;;;;;;;;4998264;28;20045;-75
2023/02/23 14:09:33;;;;;;;9.25;2.03;;;;;;;;;;5000809;28;20085;-74
2023/02/23 14:12:25;;;;;;;12.05;1.50;;;;;;;;;;4988888;28;20437;-75
2023/02/23 14:14:51;;;;;;;8.57;2.70;;;;;;;;;;5008927;28;20033;-75
2023/02/23 14:17:18;;;;;;;10.50;1.88;;;;;;;;;;5021450;28;20034;-75
2023/02/23 14:19:55;;;;;;;8.10;1.55;;;;;;;;;;5002591;28;20062;-74
2023/02/23 14:22:21;;;;;;;6.00;1.15;;;;;;;;;;4999559;28;20049;-74
2023/02/23 14:25:07;;;;;;;7.60;1.40;;;;;;;;;;5004134;28;20397;-74
2023/02/23 14:27:42;;;;;;;9.98;1.75;;;;;;;;;;5011780;28;20371;-74
2023/02/23 14:30:10;;;;;;;8.60;1.77;;;;;;;;;;5011469;28;20045;-76
2023/02/23 14:32:41;;;;;;;11.27;1.40;;;;;;;;;;5011671;28;20481;-74
2023/02/23 14:35:46;;;;;;;9.27;1.50;;;;;;;;;;5011920;28;20445;-74
2023/02/23 14:38:16;;;;;;;11.15;1.40;;;;;;;;;;5010452;28;20038;-74
2023/02/23 14:40:45;;;;;;;7.30;1.20;;;;;;;;;;5011183;28;20500;-75
2023/02/23 14:43:30;;;;;;;6.80;1.27;;;;;;;;;;5011058;28;20103;-76
2023/02/23 14:45:55;;;;;;;;;;;;;;;;;;5011951;28;20041;-77
2023/02/23 14:48:22;;;;;;;7.47;1.30;;;;;;;;;;5010374;28;19913;-76
2023/02/23 14:50:48;;;;;;;9.55;1.52;;;;;;;;;;5026356;28;20042;-74
2023/02/23 14:53:19;;;;;;;10.40;2.08;;;;;;;;;;5011796;28;20049;-74
2023/02/23 14:55:45;;;;;;;8.00;1.40;;;;;;;;;;5027085;28;20481;-73
2023/02/23 14:58:23;;;;;;;8.55;1.83;;;;;;;;;;5012178;28;20057;-74
2023/02/23 15:00:50;;;;;;;12.70;1.73;;;;;;;;;;5012012;28;20363;-74
2023/02/23 15:03:17;;;;;;;7.28;1.67;;;;;;;;;;5004736;28;20117;-75
2023/02/23 15:05:55;;;;;;;6.85;1.58;;;;;;;;;;5009339;28;20037;-75
2023/02/23 15:08:23;;;;;;;5.60;1.42;;;;;;;;;;4999333;28;20054;-74
2023/02/23 15:10:59;;;;;;;5.88;1.40;;;;;;;;;;4990200;28;20725;-74
2023/02/23 15:13:25;;;;;;;7.22;1.40;;;;;;;;;;4988604;28;20038;-74
2023/02/23 15:15:50;;;;;;;9.82;1.48;;;;;;;;;;5011045;28;20042;-75
2023/02/23 15:18:21;;;;;;;8.48;2.00;;;;;;;;;;5020536;28;20028;-74
2023/02/23 15:20:47;;;;;;;8.38;1.50;;;;;;;;;;5011193;28;20046;-74
2023/02/23 15:23:16;;;;;;;7.50;1.80;;;;;;;;;;5007976;28;20045;-74
2023/02/23 15:25:43;;;;;;;11.82;1.80;;;;;;;;;;5003344;28;20038;-74
2023/02/23 15:28:28;;;;;;;7.70;1.48;;;;;;;;;;5008612;28;20040;-74
2023/02/23 15:30:58;;;;;;;10.75;2.28;;;;;;;;;;5009757;28;20057;-74
2023/02/23 15:33:27;;;;;;;4.85;1.35;;;;;;;;;;5009371;28;20037;-79
2023/02/23 15:36:14;;;;;;;11.38;2.05;;;;;;;;;;5008017;28;20049;-74
2023/02/23 15:38:46;;;;;;;8.35;1.75;;;;;;;;;;5011286;28;20045;-76
2023/02/23 15:41:25;;;;;;;9.40;1.60;;;;;;;;;;5019292;28;20034;-74
2023/02/23 15:43:51;;;;;;;8.57;1.60;;;;;;;;;;5013683;28;20608;-74
2023/02/23 15:46:25;;;;;;;11.23;1.88;;;;;;;;;;5007450;28;20042;-75
2023/02/23 15:48:52;;;;;;;10.48;1.45;;;;;;;;;;5008556;28;20056;-74
2023/02/23 15:51:32;;;;;;;6.72;1.42;;;;;;;;;;5016445;28;20054;-73
2023/02/23 15:53:59;;;;;;;3.25;1.23;;;;;;;;;;5011815;28;20045;-74
2023/02/23 15:56:28;;;;;;;10.85;1.83;;;;;;;;;;4988254;28;20486;-80
2023/02/23 15:59:02;;;;;;;4.35;1.17;;;;;;;;;;4999729;28;20372;-73
2023/02/23 16:01:29;;;;;;;9.93;1.50;;;;;;;;;;5014926;28;20123;-79
2023/02/23 16:03:59;;;;;;;4.07;1.35;;;;;;;;;;5013448;28;20080;-73
2023/02/23 16:06:40;;;;;;;4.28;1.10;;;;;;;;;;5005112;28;20042;-74
2023/02/23 16:09:22;;;;;;;4.00;1.27;;;;;;;;;;5008377;28;20042;-73
2023/02/23 16:11:53;;;;;;;5.00;1.27;;;;;;;;;;4998846;28;20052;-73
2023/02/23 16:14:19;;;;;;;8.65;1.40;;;;;;;;;;5010012;28;20119;-75
2023/02/23 16:16:48;;;;;;;8.60;1.50;;;;;;;;;;5020271;28;20034;-75